Time;durP1;ratioP1;P1;durP2;ratioP2;P2;SDS_P1;SDS_P2;PMS_P1;PMS_P2;Temp;Humidity;BMP_temperature;BMP_pressure;BME280_temperature;BME280_humidity;BME280_pressure;Samples;Min_cycle;Max_cycle;Signal;HPM_P1;HPM_P2
2021/09/03 00:01:25;;;;;;;21.58;7.40;;;30.20;90.30;;;;;;5044561;28;20102;-55
2021/09/03 00:03:52;;;;;;;23.90;7.55;;;30.20;90.40;;;;;;5044033;28;20033;-52
2021/09/03 00:06:18;;;;;;;14.93;6.50;;;30.20;90.50;;;;;;5044336;28;20029;-53
2021/09/03 00:08:45;;;;;;;19.38;11.85;;;30.10;90.50;;;;;;5044308;28;20052;-47
2021/09/03 00:11:11;;;;;;;22.92;9.90;;;30.20;90.70;;;;;;5044054;28;20072;-58
2021/09/03 00:13:40;;;;;;;19.95;8.90;;;30.10;90.60;;;;;;5044076;28;20050;-52
2021/09/03 00:16:07;;;;;;;19.63;6.90;;;30.10;90.40;;;;;;5044307;28;20083;-53
2021/09/03 00:18:34;;;;;;;12.35;5.72;;;30.10;90.30;;;;;;5044559;28;20048;-53
2021/09/03 00:21:01;;;;;;;12.95;5.60;;;30.10;90.10;;;;;;5044254;28;20025;-54
2021/09/03 00:23:28;;;;;;;9.50;4.85;;;30.10;90.20;;;;;;5044285;28;20348;-53
2021/09/03 00:25:54;;;;;;;18.85;5.10;;;30.00;90.20;;;;;;5044111;28;20032;-49
2021/09/03 00:28:21;;;;;;;6.50;3.85;;;30.00;90.10;;;;;;5044404;28;20022;-49
2021/09/03 00:30:48;;;;;;;9.48;3.92;;;30.00;90.00;;;;;;5044436;28;20163;-52
2021/09/03 00:33:14;;;;;;;9.18;4.30;;;30.00;89.70;;;;;;5044124;28;20071;-52
2021/09/03 00:35:41;;;;;;;9.48;4.20;;;30.00;89.80;;;;;;5043973;28;20017;-51
2021/09/03 00:38:08;;;;;;;8.55;3.58;;;30.00;89.80;;;;;;5042536;28;20217;-51
2021/09/03 00:40:34;;;;;;;9.30;3.20;;;30.00;89.80;;;;;;5044351;28;20025;-51
2021/09/03 00:43:01;;;;;;;9.00;3.50;;;29.90;89.60;;;;;;5043751;28;20029;-49
2021/09/03 00:45:27;;;;;;;9.07;3.38;;;30.00;89.80;;;;;;5043610;28;20021;-52
2021/09/03 00:47:54;;;;;;;11.15;3.83;;;29.90;89.70;;;;;;5043750;28;20313;-53
2021/09/03 00:50:21;;;;;;;4.65;3.17;;;29.90;89.70;;;;;;5043520;28;20263;-54
2021/09/03 00:52:47;;;;;;;6.57;2.70;;;29.90;89.70;;;;;;5043586;28;20048;-46
2021/09/03 00:55:14;;;;;;;6.03;2.70;;;29.90;89.70;;;;;;5043672;28;20025;-51
2021/09/03 00:57:41;;;;;;;7.43;2.70;;;29.90;89.80;;;;;;5043480;28;20028;-50
2021/09/03 01:00:08;;;;;;;9.32;2.80;;;29.80;89.50;;;;;;5043610;28;20053;-52
2021/09/03 01:02:36;;;;;;;6.40;2.50;;;29.80;89.60;;;;;;5043345;28;20052;-54
2021/09/03 01:05:03;;;;;;;11.80;7.45;;;29.80;89.50;;;;;;5043859;28;20225;-49
2021/09/03 01:07:29;;;;;;;6.68;3.05;;;29.80;89.60;;;;;;5043440;28;20060;-57
2021/09/03 01:09:56;;;;;;;7.70;2.42;;;29.80;89.50;;;;;;5043316;28;20022;-48
2021/09/03 01:12:23;;;;;;;5.03;2.50;;;29.80;89.50;;;;;;5043197;28;20049;-51
2021/09/03 01:14:49;;;;;;;4.10;2.10;;;29.80;89.50;;;;;;5044896;28;20029;-48
2021/09/03 01:17:16;;;;;;;6.18;2.50;;;29.70;89.40;;;;;;5047109;28;20017;-46
2021/09/03 01:19:43;;;;;;;6.95;2.50;;;29.70;89.30;;;;;;5047470;28;20024;-51
2021/09/03 01:22:10;;;;;;;6.82;2.30;;;29.70;89.30;;;;;;5047134;28;20029;-47
2021/09/03 01:24:37;;;;;;;5.97;2.17;;;29.70;88.90;;;;;;5047444;28;20063;-48
2021/09/03 01:27:04;;;;;;;7.22;2.08;;;29.70;88.80;;;;;;5047206;28;20209;-52
2021/09/03 01:29:32;;;;;;;5.93;2.00;;;29.70;88.70;;;;;;5047184;28;20048;-56
2021/09/03 01:32:00;;;;;;;4.53;1.90;;;29.60;88.90;;;;;;5046138;28;20032;-52
2021/09/03 01:34:27;;;;;;;5.35;1.80;;;29.60;89.10;;;;;;5047083;28;20025;-54
2021/09/03 01:36:54;;;;;;;6.50;1.77;;;29.50;89.10;;;;;;5046590;28;20064;-55
2021/09/03 01:39:20;;;;;;;3.10;1.58;;;29.40;89.20;;;;;;5046088;28;20028;-53
2021/09/03 01:41:47;;;;;;;6.00;1.90;;;29.40;89.70;;;;;;5045695;28;20096;-52
2021/09/03 01:44:14;;;;;;;3.38;1.90;;;29.30;89.80;;;;;;5046436;28;20052;-53
2021/09/03 01:46:40;;;;;;;3.25;1.92;;;29.30;90.10;;;;;;5046297;28;20043;-52
2021/09/03 01:49:07;;;;;;;7.93;2.50;;;29.30;90.10;;;;;;5046535;28;20067;-53
2021/09/03 01:51:37;;;;;;;6.63;2.50;;;29.30;90.20;;;;;;5045873;28;20066;-56
2021/09/03 01:54:03;;;;;;;5.32;2.15;;;29.30;90.30;;;;;;5045030;28;20213;-54
2021/09/03 01:56:30;;;;;;;6.57;2.03;;;29.30;90.20;;;;;;5036675;28;20017;-48
2021/09/03 01:58:57;;;;;;;5.78;2.15;;;29.20;90.10;;;;;;5035356;28;20073;-55
2021/09/03 02:01:24;;;;;;;4.90;2.13;;;29.20;90.10;;;;;;5045606;28;20009;-48
2021/09/03 02:03:51;;;;;;;5.65;2.08;;;29.20;90.10;;;;;;5045869;28;20048;-55
2021/09/03 02:06:17;;;;;;;7.70;2.00;;;29.10;90.10;;;;;;5045517;28;20018;-52
2021/09/03 02:08:44;;;;;;;5.45;2.17;;;29.10;90.20;;;;;;5045060;28;20029;-53
2021/09/03 02:11:11;;;;;;;5.75;2.03;;;29.10;90.10;;;;;;5044985;28;20041;-53
2021/09/03 02:13:38;;;;;;;5.20;2.20;;;29.00;90.10;;;;;;5046118;28;20098;-52
2021/09/03 02:16:05;;;;;;;6.30;2.25;;;29.00;90.10;;;;;;5045468;28;20041;-57
2021/09/03 02:18:33;;;;;;;4.53;2.15;;;28.90;90.20;;;;;;5045936;28;20025;-53
2021/09/03 03:16:05;;;;;;;6.97;2.40;;;28.40;91.00;;;;;;5100580;27;20742;-47
2021/09/03 03:18:33;;;;;;;4.15;2.35;;;28.90;90.20;;;;;;5087032;28;20312;-47
2021/09/03 03:21:00;;;;;;;4.00;2.05;;;28.90;90.10;;;;;;5085133;28;20058;-49
2021/09/03 03:23:27;;;;;;;5.90;2.35;;;28.90;90.00;;;;;;5080680;28;20048;-49
2021/09/03 03:25:54;;;;;;;8.13;2.20;;;28.90;90.00;;;;;;5081089;28;20055;-46
2021/09/03 03:28:21;;;;;;;5.15;2.20;;;28.90;89.80;;;;;;5080775;28;20021;-48
2021/09/03 03:30:48;;;;;;;5.47;2.30;;;28.90;90.00;;;;;;5080608;28;20028;-51
2021/09/03 03:33:14;;;;;;;4.05;1.70;;;29.00;90.00;;;;;;5080677;28;20071;-48
2021/09/03 03:35:41;;;;;;;5.80;2.38;;;28.90;90.00;;;;;;5080639;28;20055;-50
2021/09/03 03:38:07;;;;;;;6.95;2.67;;;29.00;90.00;;;;;;5080359;28;20354;-45
2021/09/03 03:40:34;;;;;;;6.00;1.95;;;29.00;90.00;;;;;;5080545;28;20344;-53
2021/09/03 03:43:01;;;;;;;4.82;2.00;;;28.90;90.00;;;;;;5079369;28;20013;-47
2021/09/03 03:45:27;;;;;;;3.42;1.95;;;29.00;90.00;;;;;;5078442;28;20336;-51
2021/09/03 03:47:54;;;;;;;4.82;1.80;;;28.90;90.00;;;;;;5079730;28;20220;-50
2021/09/03 03:50:20;;;;;;;2.60;1.92;;;28.90;90.00;;;;;;5079432;28;20036;-49
2021/09/03 03:52:47;;;;;;;3.53;1.88;;;29.00;90.00;;;;;;5080066;28;20182;-49
2021/09/03 03:55:13;;;;;;;5.55;1.90;;;28.90;90.00;;;;;;5080729;28;20060;-48
2021/09/03 03:57:40;;;;;;;4.18;1.83;;;28.90;90.00;;;;;;5085474;28;20024;-52
2021/09/03 04:00:07;;;;;;;7.03;2.00;;;28.90;89.90;;;;;;5089588;28;20319;-53
2021/09/03 04:02:34;;;;;;;6.82;2.08;;;28.90;90.10;;;;;;5083935;28;20092;-49
2021/09/03 04:05:01;;;;;;;4.38;1.83;;;28.80;90.00;;;;;;5072988;28;20021;-47
2021/09/03 04:07:27;;;;;;;7.63;1.95;;;28.80;90.00;;;;;;5059924;28;20309;-50
2021/09/03 04:09:54;;;;;;;3.70;1.70;;;28.80;90.10;;;;;;5060535;28;20047;-52
2021/09/03 04:12:21;;;;;;;4.88;1.92;;;28.80;90.10;;;;;;5060006;28;20017;-50
2021/09/03 04:14:50;;;;;;;4.20;1.80;;;28.90;90.20;;;;;;5058841;28;20094;-49
2021/09/03 04:17:17;;;;;;;4.50;2.03;;;28.80;90.10;;;;;;5046348;28;20028;-59
2021/09/03 04:19:43;;;;;;;4.10;1.90;;;28.80;90.10;;;;;;5046952;28;20093;-53
2021/09/03 04:22:10;;;;;;;3.63;1.70;;;28.80;90.10;;;;;;5046593;28;20021;-48
2021/09/03 04:24:37;;;;;;;3.42;1.77;;;28.80;90.10;;;;;;5046699;28;20291;-53
2021/09/03 04:27:04;;;;;;;7.65;1.90;;;28.80;90.00;;;;;;5045295;28;20297;-56
2021/09/03 04:29:30;;;;;;;4.15;1.67;;;28.80;90.00;;;;;;5046722;28;20036;-53
2021/09/03 04:31:57;;;;;;;6.07;1.90;;;28.80;90.10;;;;;;5049925;28;20265;-48
2021/09/03 04:34:24;;;;;;;5.85;1.75;;;28.70;90.00;;;;;;5055712;28;20120;-49
2021/09/03 04:36:50;;;;;;;6.20;1.80;;;28.80;90.00;;;;;;5051478;28;20028;-51
2021/09/03 04:39:17;;;;;;;2.97;1.58;;;28.80;89.90;;;;;;5046323;28;20025;-63
2021/09/03 04:41:43;;;;;;;11.68;1.70;;;28.80;89.90;;;;;;5054592;28;20093;-50
2021/09/03 04:44:10;;;;;;;3.95;2.17;;;28.70;89.70;;;;;;5066269;28;20092;-56
2021/09/03 04:46:37;;;;;;;5.40;1.90;;;28.70;89.70;;;;;;5066090;28;20043;-54
2021/09/03 04:49:03;;;;;;;3.47;1.88;;;28.70;89.70;;;;;;5066191;28;20035;-56
2021/09/03 04:51:30;;;;;;;2.85;1.80;;;28.70;89.70;;;;;;5065980;28;20016;-53
2021/09/03 04:53:56;;;;;;;6.00;1.70;;;28.70;89.60;;;;;;5065952;28;20040;-50
2021/09/03 04:56:23;;;;;;;2.20;1.65;;;28.70;90.00;;;;;;5065916;28;20021;-52
2021/09/03 04:58:49;;;;;;;4.63;1.70;;;28.70;89.50;;;;;;5065803;28;20025;-50
2021/09/03 05:01:16;;;;;;;3.08;1.70;;;28.70;89.30;;;;;;5065697;28;20024;-45
2021/09/03 05:03:43;;;;;;;4.47;1.60;;;28.70;89.30;;;;;;5065886;28;20032;-48
2021/09/03 05:06:10;;;;;;;6.35;1.83;;;28.60;89.10;;;;;;5065683;28;20041;-63
2021/09/03 05:08:37;;;;;;;4.10;1.88;;;28.70;89.80;;;;;;5065660;28;20039;-54
2021/09/03 05:11:03;;;;;;;6.78;1.70;;;28.70;89.40;;;;;;5065709;28;20044;-57
2021/09/03 05:13:30;;;;;;;3.30;1.70;;;28.60;89.10;;;;;;5065527;28;20078;-51
2021/09/03 05:15:57;;;;;;;4.97;1.85;;;28.60;89.20;;;;;;5065345;28;20068;-46
2021/09/03 05:18:23;;;;;;;2.92;1.52;;;28.60;89.10;;;;;;5065579;28;20228;-51
2021/09/03 05:20:50;;;;;;;4.55;1.27;;;28.60;89.10;;;;;;5065489;28;20268;-51
2021/09/03 05:23:17;;;;;;;3.67;1.52;;;28.60;89.00;;;;;;5065255;28;20025;-53
2021/09/03 05:25:44;;;;;;;3.30;1.75;;;28.60;88.90;;;;;;5065395;28;20031;-52
2021/09/03 05:28:10;;;;;;;3.38;1.50;;;28.60;88.90;;;;;;5064290;28;20012;-54
2021/09/03 05:30:37;;;;;;;8.02;1.60;;;28.60;88.80;;;;;;5065205;28;20025;-48
2021/09/03 05:33:04;;;;;;;6.85;1.90;;;28.60;88.80;;;;;;5065198;28;20088;-53
2021/09/03 05:35:30;;;;;;;3.22;1.38;;;28.50;88.50;;;;;;5065221;28;20032;-48
2021/09/03 05:37:57;;;;;;;4.10;1.67;;;28.50;88.60;;;;;;5065093;28;20020;-53
2021/09/03 05:40:24;;;;;;;2.78;1.40;;;28.50;88.60;;;;;;5065591;28;20052;-52
2021/09/03 05:42:50;;;;;;;2.72;1.58;;;28.50;88.50;;;;;;5065093;28;20033;-51
2021/09/03 05:45:17;;;;;;;2.75;1.75;;;28.50;88.50;;;;;;5065449;28;20031;-51
2021/09/03 05:47:45;;;;;;;4.43;1.50;;;28.50;88.30;;;;;;5064872;28;20021;-57
2021/09/03 05:50:14;;;;;;;5.43;1.73;;;28.50;88.20;;;;;;5065398;28;20025;-47
2021/09/03 05:52:40;;;;;;;2.92;1.83;;;28.50;88.30;;;;;;5064875;28;20076;-50
2021/09/03 05:55:07;;;;;;;5.20;1.67;;;28.40;88.10;;;;;;5065173;28;20040;-49
2021/09/03 05:57:34;;;;;;;2.85;1.70;;;28.40;88.10;;;;;;5064810;28;20016;-48
2021/09/03 06:00:01;;;;;;;4.32;1.90;;;28.40;88.30;;;;;;5064669;28;20025;-47
2021/09/03 06:02:28;;;;;;;4.70;2.03;;;28.40;88.30;;;;;;5064638;28;20029;-46
2021/09/03 06:04:54;;;;;;;5.53;1.83;;;28.40;88.50;;;;;;5064865;28;20044;-55
2021/09/03 06:07:21;;;;;;;4.90;1.83;;;28.40;88.70;;;;;;5064562;28;20021;-55
2021/09/03 06:09:47;;;;;;;3.90;1.90;;;28.30;88.70;;;;;;5064732;28;20021;-53
2021/09/03 06:12:14;;;;;;;5.90;2.40;;;28.30;88.70;;;;;;5064466;28;20106;-58
2021/09/03 06:14:41;;;;;;;2.53;2.05;;;28.30;88.90;;;;;;5064371;28;20359;-57
2021/09/03 06:17:07;;;;;;;3.47;1.70;;;28.30;89.10;;;;;;5064256;28;20036;-55
2021/09/03 06:19:34;;;;;;;3.80;1.77;;;28.30;89.20;;;;;;5064672;28;20029;-48
2021/09/03 06:22:01;;;;;;;9.15;1.90;;;28.30;89.20;;;;;;5064363;28;20025;-47
2021/09/03 06:24:29;;;;;;;8.57;1.73;;;28.30;89.20;;;;;;5064279;28;20055;-48
2021/09/03 06:27:04;;;;;;;4.53;1.77;;;28.20;89.20;;;;;;5064220;28;20021;-58
2021/09/03 06:29:41;;;;;;;3.90;1.65;;;28.20;89.40;;;;;;5064452;28;20024;-51
2021/09/03 06:32:14;;;;;;;3.05;1.60;;;28.20;89.30;;;;;;5064169;28;20059;-61
2021/09/03 06:34:42;;;;;;;4.22;1.73;;;28.20;89.10;;;;;;5064422;28;20021;-51
2021/09/03 06:37:09;;;;;;;4.10;1.60;;;28.30;89.00;;;;;;5063950;28;20029;-47
2021/09/03 06:39:37;;;;;;;3.15;1.65;;;28.20;89.00;;;;;;5064142;28;20343;-57
2021/09/03 06:42:05;;;;;;;3.40;1.55;;;28.20;88.80;;;;;;5064000;28;20217;-48
2021/09/03 06:44:31;;;;;;;3.05;1.40;;;28.20;88.60;;;;;;5063856;28;20040;-50
2021/09/03 06:46:58;;;;;;;6.65;1.70;;;28.20;88.70;;;;;;5062835;28;20021;-49
2021/09/03 06:49:25;;;;;;;5.65;1.58;;;28.20;88.80;;;;;;5064229;28;20025;-51
2021/09/03 06:51:52;;;;;;;3.60;1.63;;;28.20;88.90;;;;;;5063822;28;20016;-45
2021/09/03 06:54:19;;;;;;;3.88;1.30;;;28.20;89.00;;;;;;5064101;28;20036;-51
2021/09/03 06:56:45;;;;;;;2.92;1.75;;;28.10;89.00;;;;;;5063942;28;20024;-50
2021/09/03 06:59:12;;;;;;;3.05;1.50;;;28.10;89.10;;;;;;5063912;28;20036;-47
2021/09/03 07:01:39;;;;;;;3.92;1.80;;;28.10;89.20;;;;;;5063845;28;20096;-49
2021/09/03 07:04:05;;;;;;;5.57;1.60;;;28.10;89.40;;;;;;5063899;28;20021;-53
2021/09/03 07:06:32;;;;;;;4.40;1.60;;;28.10;89.40;;;;;;5063590;28;20021;-46
2021/09/03 07:08:59;;;;;;;1.88;1.38;;;28.10;89.20;;;;;;5063951;28;20044;-55
2021/09/03 07:11:26;;;;;;;4.25;1.30;;;28.10;88.70;;;;;;5063707;28;20186;-52
2021/09/03 07:13:53;;;;;;;4.25;1.63;;;28.10;88.20;;;;;;5063509;28;20027;-48
2021/09/03 07:16:19;;;;;;;3.63;1.45;;;28.10;87.60;;;;;;5063711;28;20032;-47
2021/09/03 07:18:46;;;;;;;2.55;1.30;;;28.10;87.00;;;;;;5063773;28;20096;-53
2021/09/03 07:21:13;;;;;;;4.22;1.52;;;28.10;86.60;;;;;;5063510;28;20084;-47
2021/09/03 07:23:39;;;;;;;5.50;1.48;;;28.10;86.40;;;;;;5063714;28;20025;-54
2021/09/03 07:26:09;;;;;;;2.95;1.10;;;28.10;86.00;;;;;;5063563;28;20032;-55
2021/09/03 07:28:35;;;;;;;3.50;1.30;;;28.00;85.90;;;;;;5063419;28;20024;-54
2021/09/03 07:31:02;;;;;;;1.83;1.00;;;28.10;85.70;;;;;;5063617;28;20025;-52
2021/09/03 07:33:29;;;;;;;5.13;1.13;;;28.00;85.30;;;;;;5063558;28;20216;-44
2021/09/03 07:35:55;;;;;;;4.35;1.20;;;28.00;85.40;;;;;;5063356;28;20021;-48
2021/09/03 07:38:22;;;;;;;3.55;1.30;;;28.00;85.40;;;;;;5063460;28;20036;-54
2021/09/03 07:40:49;;;;;;;2.85;1.00;;;28.00;85.30;;;;;;5063495;28;20021;-55
2021/09/03 07:43:16;;;;;;;8.45;1.48;;;28.00;85.10;;;;;;5063086;28;20021;-48
2021/09/03 07:45:43;;;;;;;3.38;1.10;;;28.00;85.10;;;;;;5063345;28;20101;-45
2021/09/03 07:48:09;;;;;;;1.55;1.00;;;28.00;85.20;;;;;;5063407;28;20025;-44
2021/09/03 07:50:36;;;;;;;3.25;1.10;;;28.00;85.00;;;;;;5064135;28;20024;-49
2021/09/03 07:53:07;;;;;;;3.30;1.30;;;28.00;84.90;;;;;;5067151;28;20021;-57
2021/09/03 07:55:34;;;;;;;2.28;1.05;;;27.90;84.80;;;;;;5067076;28;20096;-47
2021/09/03 07:58:05;;;;;;;5.45;1.00;;;27.90;84.70;;;;;;5066905;28;20028;-48
2021/09/03 08:00:33;;;;;;;2.63;0.85;;;27.90;84.80;;;;;;5067012;28;20051;-56
2021/09/03 08:02:59;;;;;;;4.10;1.00;;;27.90;85.10;;;;;;5066937;28;20024;-57
2021/09/03 08:05:26;;;;;;;4.47;1.40;;;27.90;84.70;;;;;;5067140;28;20044;-54
2021/09/03 08:07:52;;;;;;;5.20;1.10;;;27.90;84.20;;;;;;5066887;28;20028;-51
2021/09/03 08:10:19;;;;;;;3.38;1.10;;;27.90;84.30;;;;;;5065896;28;20025;-47
2021/09/03 08:12:46;;;;;;;2.10;1.20;;;27.90;84.20;;;;;;5066618;28;20094;-49
2021/09/03 08:15:14;;;;;;;4.03;1.10;;;27.80;84.00;;;;;;5066635;28;20048;-53
2021/09/03 08:17:41;;;;;;;2.80;1.13;;;27.80;83.90;;;;;;5066693;28;20021;-46
2021/09/03 08:20:10;;;;;;;3.03;1.23;;;27.80;83.80;;;;;;5066913;28;20051;-54
2021/09/03 08:22:37;;;;;;;2.55;0.80;;;27.80;83.80;;;;;;5066572;28;20321;-52
2021/09/03 08:25:05;;;;;;;6.45;1.25;;;27.80;83.60;;;;;;5066885;28;20032;-52
2021/09/03 08:27:32;;;;;;;2.35;1.00;;;27.80;83.30;;;;;;5066395;28;20304;-56
2021/09/03 08:29:59;;;;;;;2.25;1.17;;;27.80;83.60;;;;;;5066361;28;20335;-54
2021/09/03 08:32:25;;;;;;;2.72;1.05;;;27.80;83.40;;;;;;5066422;28;20088;-47
2021/09/03 08:34:52;;;;;;;3.72;1.00;;;27.80;83.60;;;;;;5066585;28;20036;-46
2021/09/03 08:37:19;;;;;;;3.97;1.00;;;27.80;83.60;;;;;;5066295;28;20024;-53
2021/09/03 08:39:45;;;;;;;4.47;1.35;;;27.80;83.60;;;;;;5066583;28;20024;-48
2021/09/03 08:42:14;;;;;;;2.53;1.10;;;27.80;83.60;;;;;;5066176;28;20025;-47
2021/09/03 08:44:41;;;;;;;2.95;0.93;;;27.70;83.30;;;;;;5066445;28;20029;-51
2021/09/03 08:47:12;;;;;;;3.28;0.93;;;27.70;83.50;;;;;;5066127;28;20024;-46
2021/09/03 08:49:39;;;;;;;5.25;1.00;;;27.70;83.70;;;;;;5066242;28;20022;-51
2021/09/03 08:52:05;;;;;;;4.25;1.20;;;27.70;83.50;;;;;;5066070;28;20020;-52
2021/09/03 08:54:32;;;;;;;3.65;0.82;;;27.70;83.50;;;;;;5066315;28;20032;-54
2021/09/03 08:56:59;;;;;;;3.25;0.90;;;27.70;83.40;;;;;;5065866;28;20321;-53
2021/09/03 08:59:25;;;;;;;2.28;1.00;;;27.70;83.20;;;;;;5066128;28;20060;-47
2021/09/03 09:02:11;;;;;;;4.05;1.00;;;27.70;83.30;;;;;;5065757;28;20023;-52
2021/09/03 09:04:44;;;;;;;4.25;1.20;;;27.60;83.10;;;;;;5066171;28;20029;-49
2021/09/03 09:07:11;;;;;;;4.35;0.98;;;27.60;82.90;;;;;;5065769;28;20099;-52
2021/09/03 09:09:43;;;;;;;3.47;0.77;;;27.60;83.30;;;;;;5065863;28;20197;-54
2021/09/03 09:12:12;;;;;;;2.50;0.90;;;27.60;83.30;;;;;;5065665;28;20021;-48
2021/09/03 09:15:08;;;;;;;4.68;0.90;;;27.60;83.60;;;;;;5065437;28;20355;-47
2021/09/03 09:17:41;;;;;;;4.22;1.08;;;27.60;83.90;;;;;;5065466;28;20028;-49
2021/09/03 09:20:13;;;;;;;2.50;0.98;;;27.50;83.90;;;;;;5065789;28;20029;-52
2021/09/03 09:22:56;;;;;;;;;;;27.50;84.00;;;;;;5065832;28;20033;-48
2021/09/03 09:25:28;;;;;;;3.17;0.93;;;27.60;84.00;;;;;;5065743;28;19904;-48
2021/09/03 09:28:13;;;;;;;3.25;0.98;;;27.50;84.00;;;;;;5065384;28;20085;-46
2021/09/03 09:30:42;;;;;;;2.88;0.80;;;27.50;84.20;;;;;;5065208;28;20036;-47
2021/09/03 09:33:21;;;;;;;1.90;1.10;;;27.50;84.30;;;;;;5065159;28;20232;-48
2021/09/03 09:35:49;;;;;;;2.45;0.90;;;27.50;84.40;;;;;;5065263;28;20216;-48
2021/09/03 09:38:18;;;;;;;1.70;0.90;;;27.50;84.60;;;;;;5065419;28;20063;-46
2021/09/03 09:40:52;;;;;;;2.90;0.90;;;27.50;84.70;;;;;;5065133;28;20312;-49
2021/09/03 09:43:30;;;;;;;4.30;1.20;;;27.50;84.40;;;;;;5064872;28;20023;-54
2021/09/03 09:46:13;;;;;;;3.72;1.13;;;27.50;83.90;;;;;;5064994;28;20084;-47
2021/09/03 09:48:52;;;;;;;4.88;1.20;;;27.40;83.80;;;;;;5064859;28;20012;-51
2021/09/03 09:51:32;;;;;;;4.47;0.85;;;27.50;83.80;;;;;;5064970;28;20063;-58
2021/09/03 09:54:03;;;;;;;4.43;0.90;;;27.50;83.60;;;;;;5064859;28;20368;-54
2021/09/03 09:56:33;;;;;;;1.70;0.90;;;27.50;83.60;;;;;;5064806;28;20028;-54
2021/09/03 09:59:01;;;;;;;2.95;0.88;;;27.50;83.30;;;;;;5064780;28;20031;-53
2021/09/03 10:01:28;;;;;;;6.57;1.10;;;27.40;83.20;;;;;;5064734;28;20024;-48
2021/09/03 10:03:55;;;;;;;4.43;1.00;;;27.40;83.50;;;;;;5064755;28;20024;-54
2021/09/03 10:06:29;;;;;;;8.05;1.25;;;27.40;83.40;;;;;;5064380;28;20028;-53
2021/09/03 10:08:58;;;;;;;3.55;1.13;;;27.40;83.80;;;;;;5064653;28;20044;-47
2021/09/03 10:11:26;;;;;;;3.33;0.98;;;27.40;83.30;;;;;;5064515;28;20017;-53
2021/09/03 10:13:54;;;;;;;2.47;0.95;;;27.40;83.30;;;;;;5063753;28;20032;-47
2021/09/03 10:16:22;;;;;;;2.88;0.93;;;27.40;83.60;;;;;;5064745;28;20266;-47
2021/09/03 10:18:53;;;;;;;6.50;1.10;;;27.40;83.50;;;;;;5064515;28;20036;-46
2021/09/03 10:21:25;;;;;;;3.05;1.30;;;27.40;83.60;;;;;;5064220;28;20190;-46
2021/09/03 10:23:52;;;;;;;1.90;1.10;;;27.40;83.50;;;;;;5064376;28;20033;-46
2021/09/03 10:26:26;;;;;;;3.53;1.20;;;27.40;83.40;;;;;;5064237;28;20225;-50
2021/09/03 10:29:24;;;;;;;2.55;1.10;;;27.30;83.40;;;;;;5064377;28;20059;-48
2021/09/03 10:32:06;;;;;;;3.78;1.00;;;27.40;83.30;;;;;;5063501;28;20059;-52
2021/09/03 10:34:45;;;;;;;5.38;1.25;;;27.30;83.30;;;;;;5064404;28;20092;-49
2021/09/03 10:37:14;;;;;;;4.40;0.90;;;27.30;83.20;;;;;;5064062;28;20024;-47
2021/09/03 10:40:04;;;;;;;2.88;1.33;;;27.30;83.10;;;;;;5064533;28;20243;-57
2021/09/03 10:42:49;;;;;;;3.97;1.00;;;27.30;83.10;;;;;;5064006;28;20090;-46
2021/09/03 10:45:23;;;;;;;5.75;1.10;;;27.30;82.70;;;;;;5064340;28;20051;-46
2021/09/03 10:47:51;;;;;;;2.55;1.10;;;27.30;82.80;;;;;;5063991;28;20087;-51
2021/09/03 10:53:43;;;;;;;2.80;1.20;;;27.30;82.90;;;;;;5063987;28;20066;-52
2021/09/03 10:56:23;;;;;;;2.60;1.02;;;27.30;82.80;;;;;;5063845;28;20013;-53
2021/09/03 10:58:54;;;;;;;4.82;1.27;;;27.30;82.60;;;;;;5063769;28;20236;-51
2021/09/03 11:01:25;;;;;;;6.40;2.70;;;27.30;82.70;;;;;;5063624;28;20021;-58
2021/09/03 11:04:06;;;;;;;3.45;1.90;;;27.30;82.80;;;;;;5063841;28;20029;-57
2021/09/03 11:06:39;;;;;;;11.40;2.00;;;27.30;82.70;;;;;;5063611;28;20013;-50
2021/09/03 11:09:20;;;;;;;6.60;2.05;;;27.30;82.90;;;;;;5063895;28;20094;-49
2021/09/03 11:11:52;;;;;;;5.22;2.20;;;27.30;82.70;;;;;;5063532;28;20013;-49
2021/09/03 11:14:23;;;;;;;;;;;27.30;82.60;;;;;;5064002;28;20044;-50
2021/09/03 11:16:56;;;;;;;9.48;2.50;;;27.30;82.70;;;;;;5063773;28;19907;-48
2021/09/03 11:19:30;;;;;;;5.38;2.42;;;27.40;82.80;;;;;;5063834;28;20051;-54
2021/09/03 11:22:08;;;;;;;10.30;3.05;;;27.40;82.90;;;;;;5063642;28;20313;-56
2021/09/03 11:24:41;;;;;;;14.40;3.90;;;27.50;83.10;;;;;;5063727;28;20234;-52
2021/09/03 11:27:14;;;;;;;9.65;2.75;;;27.50;83.10;;;;;;5067394;28;20029;-53
2021/09/03 11:30:00;;;;;;;5.05;2.53;;;27.60;83.00;;;;;;5067448;28;20118;-52
2021/09/03 11:32:37;;;;;;;6.05;2.95;;;27.60;82.90;;;;;;5067929;28;20027;-51
2021/09/03 11:35:15;;;;;;;5.60;2.80;;;27.60;82.80;;;;;;5067287;28;20082;-48
2021/09/03 11:37:49;;;;;;;11.82;3.83;;;27.70;83.10;;;;;;5052702;28;20317;-53
2021/09/03 11:40:26;;;;;;;11.13;3.35;;;27.70;83.30;;;;;;5046986;28;20063;-51
2021/09/03 11:42:55;;;;;;;11.57;2.78;;;27.80;83.50;;;;;;5046867;28;20029;-45
2021/09/03 11:45:38;;;;;;;7.18;2.10;;;27.80;83.50;;;;;;5047181;28;20021;-51
2021/09/03 11:48:10;;;;;;;6.53;2.33;;;27.90;83.40;;;;;;5047083;28;20013;-48
2021/09/03 11:50:44;;;;;;;4.57;1.93;;;28.00;83.60;;;;;;5047216;28;20021;-45
2021/09/03 11:53:17;;;;;;;7.13;2.00;;;28.00;83.50;;;;;;5047015;28;20060;-50
2021/09/03 11:55:46;;;;;;;7.00;2.10;;;28.00;83.70;;;;;;5047156;28;20048;-51
2021/09/03 11:58:17;;;;;;;4.55;2.13;;;28.10;83.90;;;;;;5045706;28;20029;-48
2021/09/03 12:00:47;;;;;;;6.33;2.20;;;28.10;83.90;;;;;;5047189;28;20030;-55
2021/09/03 12:03:19;;;;;;;4.47;2.00;;;28.20;84.00;;;;;;5046725;28;20021;-50
2021/09/03 12:05:47;;;;;;;;;;;28.20;84.10;;;;;;5047283;28;20036;-59
2021/09/03 12:08:22;;;;;;;13.43;2.20;;;28.30;84.40;;;;;;5046642;28;19972;-48
2021/09/03 12:11:12;;;;;;;4.72;2.33;;;28.30;84.60;;;;;;5046918;28;20029;-47
2021/09/03 12:13:58;;;;;;;9.32;2.10;;;28.40;84.80;;;;;;5046687;28;20018;-47
2021/09/03 12:16:29;;;;;;;4.28;1.95;;;28.40;85.00;;;;;;5046764;28;20301;-47
2021/09/03 12:19:00;;;;;;;8.18;2.35;;;28.40;85.30;;;;;;5046722;28;20084;-53
2021/09/03 12:21:35;;;;;;;6.40;2.13;;;28.50;85.40;;;;;;5046672;28;20068;-50
2021/09/03 12:24:05;;;;;;;6.57;2.03;;;28.50;85.30;;;;;;5046671;28;20025;-48
2021/09/03 12:26:47;;;;;;;3.63;1.55;;;28.60;85.30;;;;;;5046389;28;20293;-55
2021/09/03 12:29:14;;;;;;;6.50;1.80;;;28.60;85.40;;;;;;5045337;28;20075;-51
2021/09/03 12:31:50;;;;;;;6.95;1.88;;;28.60;85.40;;;;;;5046478;28;20067;-52
2021/09/03 12:34:18;;;;;;;6.03;1.80;;;28.60;85.50;;;;;;5046423;28;20085;-48
2021/09/03 12:36:44;;;;;;;5.80;1.83;;;28.70;85.60;;;;;;5045670;28;20025;-50
2021/09/03 12:39:19;;;;;;;3.47;1.52;;;28.70;85.30;;;;;;5045806;28;20027;-50
2021/09/03 12:41:47;;;;;;;5.30;1.60;;;28.70;85.30;;;;;;5046301;28;20025;-48
2021/09/03 12:44:26;;;;;;;4.80;1.50;;;28.80;85.80;;;;;;5044936;28;20021;-54
2021/09/03 12:46:55;;;;;;;3.13;1.73;;;28.80;85.60;;;;;;5046269;28;20483;-53
2021/09/03 12:49:27;;;;;;;4.63;2.15;;;28.80;85.70;;;;;;5046058;28;20013;-47
2021/09/03 12:51:56;;;;;;;4.93;1.80;;;28.90;86.00;;;;;;5046224;28;20017;-54
2021/09/03 12:54:24;;;;;;;6.32;1.90;;;28.90;85.70;;;;;;5045960;28;20244;-52
2021/09/03 12:56:54;;;;;;;4.00;2.08;;;28.90;85.60;;;;;;5046191;28;20021;-47
2021/09/03 12:59:21;;;;;;;5.00;2.25;;;28.90;85.80;;;;;;5045915;28;20029;-52
2021/09/03 13:01:49;;;;;;;4.57;2.00;;;29.00;86.00;;;;;;5046030;28;20045;-46
2021/09/03 13:04:17;;;;;;;7.72;2.50;;;29.00;86.00;;;;;;5045716;28;20062;-51
2021/09/03 13:06:48;;;;;;;6.53;2.15;;;29.00;84.70;;;;;;5045741;28;20088;-52
2021/09/03 13:09:16;;;;;;;6.45;2.00;;;29.00;85.10;;;;;;5045834;28;20024;-48
2021/09/03 13:11:43;;;;;;;6.35;1.80;;;29.10;85.60;;;;;;5045763;28;20309;-58
2021/09/03 13:14:10;;;;;;;5.53;2.03;;;29.10;84.80;;;;;;5045650;28;20033;-49
2021/09/03 13:16:41;;;;;;;6.82;1.90;;;29.10;85.30;;;;;;5045618;28;20033;-50
2021/09/03 13:19:09;;;;;;;7.22;2.70;;;29.10;86.10;;;;;;5045358;28;20022;-50
2021/09/03 13:21:39;;;;;;;7.65;2.63;;;29.10;85.60;;;;;;5045544;28;20029;-48
2021/09/03 13:24:06;;;;;;;3.10;2.05;;;29.10;85.50;;;;;;5045408;28;20037;-53
2021/09/03 13:26:33;;;;;;;5.80;2.08;;;29.20;85.40;;;;;;5045270;28;20029;-47
2021/09/03 13:29:00;;;;;;;10.13;1.95;;;29.20;85.20;;;;;;5045439;28;20017;-52
2021/09/03 13:31:27;;;;;;;6.25;1.70;;;29.20;85.10;;;;;;5045543;28;20033;-48
2021/09/03 13:33:56;;;;;;;6.43;1.88;;;29.20;85.10;;;;;;5045303;28;20199;-54
2021/09/03 13:36:24;;;;;;;7.68;1.83;;;29.20;85.30;;;;;;5045220;28;20072;-54
2021/09/03 13:39:00;;;;;;;6.82;1.98;;;29.30;85.40;;;;;;5044208;28;20021;-50
2021/09/03 13:41:29;;;;;;;4.43;1.50;;;29.20;85.10;;;;;;5045194;28;20075;-54
2021/09/03 13:43:56;;;;;;;4.60;1.52;;;29.30;84.80;;;;;;5045070;28;20321;-59
2021/09/03 13:46:23;;;;;;;3.60;1.42;;;29.30;84.70;;;;;;5044465;28;20356;-52
2021/09/03 13:48:50;;;;;;;3.22;1.65;;;29.30;84.90;;;;;;5044221;28;20021;-52
2021/09/03 13:51:17;;;;;;;4.35;1.30;;;29.30;84.70;;;;;;5044931;28;20365;-52
2021/09/03 13:53:45;;;;;;;3.85;1.20;;;29.30;84.90;;;;;;5044913;28;20025;-49
2021/09/03 13:56:13;;;;;;;6.55;1.67;;;29.40;84.80;;;;;;5045158;28;20049;-50